createdAt,value
2023-02-04T00:01:10.319Z,62.10
2023-02-04T00:03:39.672Z,61.60
2023-02-04T00:06:09.248Z,61.00
2023-02-04T00:08:38.770Z,60.70
2023-02-04T00:11:08.951Z,61.00
2023-02-04T00:13:37.963Z,61.20
2023-02-04T00:16:07.932Z,61.30
2023-02-04T00:18:36.876Z,61.00
2023-02-04T00:21:05.995Z,61.50
2023-02-04T00:23:34.964Z,61.20
2023-02-04T00:26:04.464Z,62.10
2023-02-04T00:28:35.182Z,61.30
2023-02-04T00:31:04.562Z,61.20
2023-02-04T00:33:33.617Z,61.30
2023-02-04T00:36:02.538Z,61.10
2023-02-04T00:38:31.511Z,61.50
2023-02-04T00:41:00.544Z,60.80
2023-02-04T00:43:29.698Z,60.90
2023-02-04T00:46:00.433Z,60.60
2023-02-04T00:48:30.166Z,60.30
2023-02-04T00:50:59.077Z,60.40
2023-02-04T00:53:28.258Z,60.50
2023-02-04T00:56:00.214Z,60.70
2023-02-04T00:58:32.000Z,60.50
2023-02-04T01:01:02.629Z,60.60
2023-02-04T01:03:31.921Z,60.90
2023-02-04T01:06:01.419Z,61.10
2023-02-04T01:08:30.619Z,60.80
2023-02-04T01:11:00.649Z,60.90
2023-02-04T01:13:29.746Z,60.70
2023-02-04T01:15:58.850Z,60.70
2023-02-04T01:18:30.621Z,61.10
2023-02-04T01:21:00.013Z,61.80
2023-02-04T01:23:29.044Z,61.40
2023-02-04T01:26:00.849Z,61.30
2023-02-04T01:28:29.881Z,61.70
2023-02-04T01:31:01.247Z,61.50
2023-02-04T01:33:31.695Z,61.70
2023-02-04T01:36:00.970Z,61.90
2023-02-04T01:38:31.658Z,62.30
2023-02-04T01:41:01.789Z,62.10
2023-02-04T01:43:31.340Z,62.20
2023-02-04T01:46:02.703Z,62.10
2023-02-04T01:48:33.372Z,61.90
2023-02-04T01:51:06.630Z,62.80
2023-02-04T01:53:39.662Z,62.10
2023-02-04T01:56:17.356Z,61.70
2023-02-04T01:58:47.278Z,61.80
2023-02-04T02:01:34.078Z,61.80
2023-02-04T02:04:05.823Z,62.00
2023-02-04T02:06:36.713Z,62.00
2023-02-04T02:09:09.215Z,61.90
2023-02-04T02:11:38.499Z,61.90
2023-02-04T02:14:10.017Z,62.20
2023-02-04T02:16:39.503Z,62.30
2023-02-04T02:19:14.779Z,62.40
2023-02-04T02:21:55.129Z,62.30
2023-02-04T02:24:50.868Z,62.80
2023-02-04T02:27:50.524Z,63.10
2023-02-04T02:30:42.868Z,62.90
2023-02-04T02:33:34.272Z,62.80
2023-02-04T02:36:15.234Z,63.20
2023-02-04T02:38:51.976Z,63.60
2023-02-04T02:41:22.440Z,63.50
2023-02-04T02:43:52.348Z,63.50
2023-02-04T02:46:21.415Z,63.10
2023-02-04T02:48:50.522Z,63.20
2023-02-04T02:51:19.555Z,63.10
2023-02-04T02:53:52.451Z,63.40
2023-02-04T02:56:22.854Z,63.30
2023-02-04T02:58:52.038Z,63.30
2023-02-04T03:01:21.121Z,63.40
2023-02-04T03:03:52.857Z,63.70
2023-02-04T03:06:25.997Z,63.90
2023-02-04T03:08:57.665Z,64.00
2023-02-04T03:11:29.935Z,64.30
2023-02-04T03:14:01.088Z,64.50
2023-02-04T03:16:33.249Z,64.80
2023-02-04T03:19:07.919Z,65.20
2023-02-04T03:21:37.892Z,65.50
2023-02-04T03:24:07.694Z,65.60
2023-02-04T03:26:40.669Z,65.60
2023-02-04T03:29:10.801Z,65.90
2023-02-04T03:31:40.019Z,66.00
2023-02-04T03:34:09.400Z,66.00
2023-02-04T03:36:38.674Z,66.20
2023-02-04T03:39:07.653Z,66.20
2023-02-04T03:41:37.026Z,66.20
2023-02-04T03:44:07.881Z,66.20
2023-02-04T03:46:37.032Z,66.20
2023-02-04T03:49:06.292Z,66.20
2023-02-04T03:51:35.627Z,66.20
2023-02-04T03:54:04.805Z,66.30
2023-02-04T03:56:34.185Z,66.10
2023-02-04T03:59:03.584Z,65.60
2023-02-04T04:01:35.465Z,65.20
2023-02-04T04:04:04.718Z,64.90
2023-02-04T04:06:34.066Z,64.90
2023-02-04T04:09:03.003Z,65.00
2023-02-04T04:11:34.134Z,65.00
2023-02-04T04:14:03.082Z,65.00
2023-02-04T04:16:33.406Z,65.10
2023-02-04T04:19:05.287Z,65.30
2023-02-04T04:21:34.128Z,65.40
2023-02-04T04:24:03.251Z,65.40
2023-02-04T04:26:32.228Z,65.40
2023-02-04T04:29:01.200Z,65.40
2023-02-04T04:31:30.333Z,65.50
2023-02-04T04:34:08.003Z,65.50
2023-02-04T04:36:40.042Z,65.00
2023-02-04T04:39:09.245Z,65.30
2023-02-04T04:41:38.146Z,65.30
2023-02-04T04:44:07.453Z,65.30
2023-02-04T04:46:42.042Z,65.20
2023-02-04T04:49:12.706Z,65.10
2023-02-04T04:51:41.889Z,65.20
2023-02-04T04:54:11.079Z,65.20
2023-02-04T04:56:42.844Z,65.30
2023-02-04T04:59:11.725Z,65.20
2023-02-04T05:01:40.839Z,65.30
2023-02-04T05:04:10.140Z,65.30
2023-02-04T05:06:40.645Z,65.40
2023-02-04T05:09:10.513Z,65.40
2023-02-04T05:11:39.516Z,66.30
2023-02-04T05:14:13.458Z,65.50
2023-02-04T05:16:42.411Z,65.50
2023-02-04T05:19:17.343Z,65.50
2023-02-04T05:21:47.616Z,65.30
2023-02-04T05:24:16.745Z,65.60
2023-02-04T05:26:46.152Z,65.50
2023-02-04T05:29:15.419Z,65.40
2023-02-04T05:31:44.541Z,65.50
2023-02-04T05:34:13.516Z,65.60
2023-02-04T05:36:42.833Z,65.60
2023-02-04T05:39:13.395Z,65.40
2023-02-04T05:41:42.678Z,65.30
2023-02-04T05:44:11.821Z,65.10
2023-02-04T05:46:41.133Z,65.00
2023-02-04T05:49:10.458Z,65.00
2023-02-04T05:51:39.559Z,64.90
2023-02-04T05:54:08.827Z,64.70
2023-02-04T05:56:39.303Z,64.40
2023-02-04T05:59:08.301Z,64.40
2023-02-04T06:01:37.222Z,64.50
2023-02-04T06:04:06.503Z,64.60
2023-02-04T06:06:35.582Z,64.70
2023-02-04T06:09:05.417Z,64.80
2023-02-04T06:11:34.817Z,64.60
2023-02-04T06:14:05.589Z,64.60
2023-02-04T06:16:34.849Z,64.50
2023-02-04T06:19:03.987Z,64.50
2023-02-04T06:21:33.090Z,64.50
2023-02-04T06:24:02.916Z,64.50
2023-02-04T06:26:32.657Z,64.90
2023-02-04T06:29:01.963Z,64.40
2023-02-04T06:31:32.855Z,64.40
2023-02-04T06:34:01.982Z,64.40
2023-02-04T06:36:31.046Z,64.40
2023-02-04T06:39:00.080Z,64.30
2023-02-04T06:41:29.024Z,64.30
2023-02-04T06:43:58.015Z,64.30
2023-02-04T06:46:27.187Z,64.30
2023-02-04T06:48:57.762Z,64.40
2023-02-04T06:51:27.699Z,64.50
2023-02-04T06:53:56.985Z,64.50
2023-02-04T06:56:27.022Z,64.60
2023-02-04T06:58:56.197Z,64.50
2023-02-04T07:01:25.320Z,64.50
2023-02-04T07:03:54.661Z,64.70
2023-02-04T07:06:25.305Z,64.70
2023-02-04T07:08:54.300Z,64.60
2023-02-04T07:11:23.773Z,64.70
2023-02-04T07:13:53.077Z,64.70
2023-02-04T07:16:22.475Z,64.50
2023-02-04T07:18:51.847Z,64.30
2023-02-04T07:21:20.758Z,64.10
2023-02-04T07:23:51.154Z,63.60
2023-02-04T07:26:20.652Z,63.20
2023-02-04T07:28:50.009Z,63.20
2023-02-04T07:31:18.942Z,63.00
2023-02-04T07:33:47.994Z,63.40
2023-02-04T07:36:16.932Z,63.60
2023-02-04T07:38:46.081Z,63.30
2023-02-04T07:41:16.457Z,63.30
2023-02-04T07:43:45.580Z,63.10
2023-02-04T07:46:14.807Z,63.20
2023-02-04T07:48:44.271Z,63.10
2023-02-04T07:51:13.557Z,62.90
2023-02-04T07:53:42.930Z,62.80
2023-02-04T07:56:12.541Z,63.00
2023-02-04T07:58:43.733Z,63.10
2023-02-04T08:01:12.911Z,63.10
2023-02-04T08:03:42.729Z,63.10
2023-02-04T08:06:11.832Z,63.20
2023-02-04T08:08:40.992Z,63.10
2023-02-04T08:11:10.200Z,63.10
2023-02-04T08:13:39.442Z,63.20
2023-02-04T08:16:11.937Z,63.30
2023-02-04T08:18:41.128Z,63.40
2023-02-04T08:21:10.352Z,63.50
2023-02-04T08:23:41.782Z,63.50
2023-02-04T08:26:11.530Z,63.40
2023-02-04T08:28:40.785Z,63.30
2023-02-04T08:31:12.058Z,63.20
2023-02-04T08:33:41.722Z,63.10
2023-02-04T08:36:10.892Z,63.10
2023-02-04T08:38:40.560Z,62.90
2023-02-04T08:41:09.832Z,63.00
2023-02-04T08:43:38.946Z,63.00
2023-02-04T08:46:08.262Z,62.70
2023-02-04T08:48:38.617Z,62.40
2023-02-04T08:51:07.644Z,62.60
2023-02-04T08:53:37.968Z,62.70
2023-02-04T08:56:07.851Z,61.70
2023-02-04T08:58:40.078Z,61.50
2023-02-04T09:01:11.336Z,61.20
2023-02-04T09:03:41.997Z,61.40
2023-02-04T09:06:11.340Z,60.40
2023-02-04T09:08:40.318Z,60.30
2023-02-04T09:11:11.137Z,61.10
2023-02-04T09:13:40.763Z,60.30
2023-02-04T09:16:10.854Z,60.20
2023-02-04T09:18:41.532Z,60.10
2023-02-04T09:21:10.657Z,60.00
2023-02-04T09:23:39.839Z,60.00
2023-02-04T09:26:08.913Z,60.10
2023-02-04T09:28:38.005Z,60.10
2023-02-04T09:31:07.407Z,60.00
2023-02-04T09:33:36.982Z,60.00
2023-02-04T09:36:09.902Z,59.30
2023-02-04T09:38:39.076Z,59.40
2023-02-04T09:41:11.383Z,59.40
2023-02-04T09:43:42.437Z,59.20
2023-02-04T09:46:19.611Z,59.30
2023-02-04T09:48:49.312Z,59.30
2023-02-04T09:51:23.010Z,59.40
2023-02-04T09:53:54.091Z,59.20
2023-02-04T09:56:23.480Z,59.10
2023-02-04T09:58:52.664Z,59.00
2023-02-04T10:01:22.470Z,58.90
2023-02-04T10:03:51.848Z,58.90
2023-02-04T10:06:24.583Z,59.10
2023-02-04T10:08:53.890Z,59.10
2023-02-04T10:11:24.671Z,59.10
2023-02-04T10:13:56.174Z,59.10
2023-02-04T10:16:30.093Z,59.00
2023-02-04T10:19:00.971Z,59.00
2023-02-04T10:21:33.690Z,59.00
2023-02-04T10:24:05.232Z,58.90
2023-02-04T10:26:34.609Z,58.80
2023-02-04T10:29:07.405Z,59.60
2023-02-04T10:31:39.712Z,59.90
2023-02-04T10:34:16.756Z,59.70
2023-02-04T10:36:50.674Z,59.20
2023-02-04T10:39:21.566Z,58.50
2023-02-04T10:41:52.875Z,57.70
2023-02-04T10:44:26.770Z,57.60
2023-02-04T10:47:03.105Z,57.00
2023-02-04T10:49:33.486Z,56.50
2023-02-04T10:52:14.686Z,56.10
2023-02-04T10:54:43.987Z,55.00
2023-02-04T10:57:21.485Z,54.70
2023-02-04T10:59:54.624Z,54.30
2023-02-04T11:02:40.852Z,53.60
2023-02-04T11:05:15.167Z,52.80
2023-02-04T11:07:46.677Z,52.40
2023-02-04T11:10:17.589Z,52.20
2023-02-04T11:12:59.877Z,51.90
2023-02-04T11:15:44.464Z,52.70
2023-02-04T11:18:26.257Z,52.60
2023-02-04T11:20:57.882Z,52.50
2023-02-04T11:23:37.206Z,51.50
2023-02-04T11:26:14.461Z,50.30
2023-02-04T11:28:49.842Z,50.00
2023-02-04T11:31:42.437Z,48.40
2023-02-04T11:34:25.551Z,46.20
2023-02-04T11:37:14.262Z,45.20
2023-02-04T11:39:46.826Z,43.50
2023-02-04T11:42:22.528Z,41.70
2023-02-04T11:44:53.539Z,41.10
2023-02-04T11:47:24.811Z,40.60
2023-02-04T11:49:57.819Z,38.60
2023-02-04T11:52:27.255Z,36.70
2023-02-04T11:55:00.036Z,37.30
2023-02-04T11:57:29.666Z,37.20
2023-02-04T12:00:01.361Z,37.30
2023-02-04T12:02:43.272Z,37.30
2023-02-04T12:05:15.131Z,37.00
2023-02-04T12:07:45.245Z,37.30
2023-02-04T12:10:27.077Z,37.10
2023-02-04T12:12:59.552Z,37.10
2023-02-04T12:15:35.901Z,37.30
2023-02-04T12:18:07.351Z,38.90
2023-02-04T12:20:37.092Z,38.90
2023-02-04T12:23:08.500Z,39.60
2023-02-04T12:25:39.118Z,41.00
2023-02-04T12:28:08.396Z,41.20
2023-02-04T12:30:37.836Z,41.50
2023-02-04T12:33:07.230Z,42.00
2023-02-04T12:35:36.449Z,42.40
2023-02-04T12:38:05.937Z,42.70
2023-02-04T12:40:35.054Z,43.60
2023-02-04T12:43:05.865Z,43.70
2023-02-04T12:45:35.442Z,43.10
2023-02-04T12:48:05.218Z,43.40
2023-02-04T12:50:34.679Z,43.80
2023-02-04T12:53:04.452Z,44.50
2023-02-04T12:55:34.095Z,44.70
2023-02-04T12:58:05.274Z,44.80
2023-02-04T13:00:34.559Z,45.40
2023-02-04T13:03:05.302Z,45.30
2023-02-04T13:05:36.080Z,44.40
2023-02-04T13:08:05.793Z,43.80
2023-02-04T13:10:34.709Z,43.40
2023-02-04T13:13:04.952Z,43.20
2023-02-04T13:15:34.556Z,43.50
2023-02-04T13:18:03.914Z,43.80
2023-02-04T13:20:32.957Z,44.20
2023-02-04T13:23:01.810Z,44.60
2023-02-04T13:25:31.433Z,44.70
2023-02-04T13:28:01.072Z,44.50
2023-02-04T13:30:31.761Z,44.40
2023-02-04T13:33:01.652Z,44.90
2023-02-04T13:35:31.171Z,44.80
2023-02-04T13:38:00.962Z,45.20
2023-02-04T13:40:30.114Z,45.20
2023-02-04T13:42:59.052Z,44.90
2023-02-04T13:45:28.256Z,44.90
2023-02-04T13:47:58.838Z,45.00
2023-02-04T13:50:28.073Z,45.10
2023-02-04T13:52:57.130Z,45.10
2023-02-04T13:55:26.159Z,45.60
2023-02-04T13:57:55.458Z,45.40
2023-02-04T14:00:24.953Z,45.50
2023-02-04T14:02:54.230Z,45.90
2023-02-04T14:05:25.494Z,46.00
2023-02-04T14:07:54.561Z,45.90
2023-02-04T14:10:25.123Z,46.00
2023-02-04T14:12:54.574Z,46.50
2023-02-04T14:15:24.072Z,46.30
2023-02-04T14:17:53.056Z,46.40
2023-02-04T14:20:22.147Z,46.20
2023-02-04T14:22:52.442Z,46.60
2023-02-04T14:25:21.896Z,46.50
2023-02-04T14:27:51.489Z,46.60
2023-02-04T14:30:23.462Z,46.70
2023-02-04T14:32:53.079Z,47.10
2023-02-04T14:35:22.780Z,47.10
2023-02-04T14:37:53.403Z,46.90
2023-02-04T14:40:23.501Z,46.90
2023-02-04T14:42:52.558Z,47.30
2023-02-04T14:45:21.785Z,46.40
2023-02-04T14:47:52.558Z,46.50
2023-02-04T14:50:27.407Z,46.20
2023-02-04T14:52:58.438Z,46.20
2023-02-04T14:55:28.459Z,46.30
2023-02-04T14:57:57.474Z,46.40
2023-02-04T15:00:26.681Z,46.30
2023-02-04T15:02:55.903Z,46.50
2023-02-04T15:05:24.863Z,46.80
2023-02-04T15:07:54.110Z,46.60
2023-02-04T15:10:24.892Z,46.90
2023-02-04T15:12:55.276Z,47.20
2023-02-04T15:15:24.578Z,47.30
2023-02-04T15:17:53.960Z,47.50
2023-02-04T15:20:23.103Z,47.20
2023-02-04T15:22:53.801Z,47.50
2023-02-04T15:25:25.069Z,47.40
2023-02-04T15:27:54.490Z,47.40
2023-02-04T15:30:24.123Z,47.50
2023-02-04T15:32:53.637Z,47.60
2023-02-04T15:35:22.737Z,47.90
2023-02-04T15:37:52.060Z,47.90
2023-02-04T15:40:22.882Z,47.80
2023-02-04T15:42:53.045Z,47.80
2023-02-04T15:45:22.343Z,47.80
2023-02-04T15:47:52.133Z,47.90
2023-02-04T15:50:21.703Z,48.00
2023-02-04T15:52:51.044Z,47.90
2023-02-04T15:55:20.218Z,48.00
2023-02-04T15:57:50.849Z,48.10
2023-02-04T16:00:20.631Z,47.90
2023-02-04T16:02:49.949Z,48.20
2023-02-04T16:05:19.130Z,48.40
2023-02-04T16:07:49.000Z,48.40
2023-02-04T16:10:18.935Z,48.40
2023-02-04T16:12:48.429Z,49.10
2023-02-04T16:15:19.561Z,49.10
2023-02-04T16:17:49.052Z,48.40
2023-02-04T16:20:19.578Z,48.40
2023-02-04T16:22:49.098Z,48.90
2023-02-04T16:25:18.536Z,48.80
2023-02-04T16:27:47.859Z,48.70
2023-02-04T16:30:20.273Z,48.90
2023-02-04T16:32:49.455Z,49.20
2023-02-04T16:35:18.829Z,49.20
2023-02-04T16:37:48.235Z,49.40
2023-02-04T16:40:18.537Z,49.50
2023-02-04T16:42:48.197Z,49.60
2023-02-04T16:45:18.943Z,49.70
2023-02-04T16:47:48.638Z,50.10
2023-02-04T16:50:20.943Z,49.80
2023-02-04T16:52:50.620Z,50.30
2023-02-04T16:55:20.657Z,50.00
2023-02-04T16:57:49.911Z,50.00
2023-02-04T17:00:21.640Z,50.30
2023-02-04T17:02:50.898Z,50.70
2023-02-04T17:05:20.358Z,51.00
2023-02-04T17:07:49.505Z,51.20
2023-02-04T17:10:38.996Z,51.30
2023-02-04T17:13:08.082Z,51.40
2023-02-04T17:15:38.760Z,51.50
2023-02-04T17:18:08.380Z,51.80
2023-02-04T17:20:38.217Z,51.90
2023-02-04T17:23:07.404Z,52.00
2023-02-04T17:25:36.436Z,51.90
2023-02-04T17:28:07.039Z,52.00
2023-02-04T17:30:39.340Z,52.10
2023-02-04T17:33:08.519Z,52.10
2023-02-04T17:35:37.513Z,52.20
2023-02-04T17:38:06.644Z,52.20
2023-02-04T17:40:37.397Z,52.20
2023-02-04T17:43:07.609Z,52.20
2023-02-04T17:45:38.829Z,52.30
2023-02-04T17:48:07.939Z,52.40
2023-02-04T17:50:40.285Z,52.40
2023-02-04T17:53:10.864Z,52.30
2023-02-04T17:55:40.458Z,52.50
2023-02-04T17:58:14.254Z,52.30
2023-02-04T18:00:47.380Z,52.70
2023-02-04T18:03:19.503Z,53.00
2023-02-04T18:05:51.056Z,53.20
2023-02-04T18:08:21.925Z,53.30
2023-02-04T18:10:52.625Z,53.50
2023-02-04T18:13:23.697Z,53.70
2023-02-04T18:15:57.927Z,54.00
2023-02-04T18:18:28.205Z,54.10
2023-02-04T18:21:03.368Z,54.10
2023-02-04T18:23:34.258Z,54.30
2023-02-04T18:26:13.132Z,54.30
2023-02-04T18:28:45.191Z,54.50
2023-02-04T18:31:35.603Z,54.70
2023-02-04T18:34:20.469Z,54.80
2023-02-04T18:36:49.705Z,54.90
2023-02-04T18:39:20.368Z,54.80
2023-02-04T18:41:51.540Z,54.90
2023-02-04T18:44:31.288Z,55.10
2023-02-04T18:47:03.653Z,55.40
2023-02-04T18:49:39.554Z,55.50
2023-02-04T18:52:18.774Z,55.60
2023-02-04T18:54:51.659Z,55.80
2023-02-04T18:57:35.641Z,55.90
2023-02-04T19:00:27.647Z,56.10
2023-02-04T19:03:01.004Z,56.30
2023-02-04T19:05:34.717Z,56.20
2023-02-04T19:08:27.911Z,56.60
2023-02-04T19:10:59.263Z,56.20
2023-02-04T19:13:39.432Z,56.10
2023-02-04T19:16:21.196Z,56.20
2023-02-04T19:18:53.718Z,56.10
2023-02-04T19:21:27.208Z,56.10
2023-02-04T19:24:03.494Z,56.00
2023-02-04T19:26:37.869Z,56.10
2023-02-04T19:29:37.910Z,56.00
2023-02-04T19:32:23.472Z,56.10
2023-02-04T19:34:54.941Z,56.10
2023-02-04T19:37:26.619Z,56.20
2023-02-04T19:39:57.475Z,56.30
2023-02-04T19:42:32.515Z,56.30
2023-02-04T19:45:03.422Z,56.50
2023-02-04T19:47:41.652Z,56.70
2023-02-04T19:50:28.453Z,56.90
2023-02-04T19:53:01.657Z,56.90
2023-02-04T19:55:34.710Z,57.00
2023-02-04T19:58:15.379Z,57.10
2023-02-04T20:00:47.716Z,57.30
2023-02-04T20:03:31.493Z,57.30
2023-02-04T20:06:20.074Z,57.50
2023-02-04T20:08:52.788Z,57.50
2023-02-04T20:11:45.202Z,57.70
2023-02-04T20:14:50.150Z,57.90
2023-02-04T20:17:27.144Z,57.90
2023-02-04T20:20:08.153Z,58.00
2023-02-04T20:22:56.449Z,58.10
2023-02-04T20:25:55.749Z,58.20
2023-02-04T20:28:39.907Z,58.40
2023-02-04T20:31:27.133Z,58.40
2023-02-04T20:33:58.302Z,58.30
2023-02-04T20:36:38.252Z,58.20
2023-02-04T20:39:39.206Z,58.50
2023-02-04T20:42:44.802Z,58.50
2023-02-04T20:45:27.704Z,58.50
2023-02-04T20:48:03.349Z,58.50
2023-02-04T20:50:41.547Z,58.40
2023-02-04T20:53:25.958Z,58.60
2023-02-04T20:56:03.638Z,58.60
2023-02-04T20:58:38.825Z,58.70
2023-02-04T21:01:21.118Z,58.70
2023-02-04T21:03:52.235Z,58.70
2023-02-04T21:06:29.041Z,58.50
2023-02-04T21:09:02.988Z,58.70
2023-02-04T21:11:33.526Z,58.70
2023-02-04T21:14:02.752Z,58.70
2023-02-04T21:16:32.054Z,58.60
2023-02-04T21:19:01.611Z,58.70
2023-02-04T21:21:30.996Z,58.80
2023-02-04T21:24:01.747Z,58.70
2023-02-04T21:26:34.050Z,58.70
2023-02-04T21:29:05.146Z,59.00
2023-02-04T21:31:35.172Z,59.00
2023-02-04T21:34:04.755Z,59.10
2023-02-04T21:36:34.057Z,59.20
2023-02-04T21:39:03.404Z,59.30
2023-02-04T21:41:33.923Z,59.30
2023-02-04T21:44:03.616Z,59.30
2023-02-04T21:46:33.022Z,59.20
2023-02-04T21:49:04.032Z,59.20
2023-02-04T21:51:33.463Z,59.00
2023-02-04T21:54:05.189Z,59.10
2023-02-04T21:56:35.657Z,59.10
2023-02-04T21:59:04.695Z,59.10
2023-02-04T22:01:33.887Z,59.10
2023-02-04T22:04:03.095Z,59.10
2023-02-04T22:06:34.544Z,59.00
2023-02-04T22:09:03.533Z,58.90
2023-02-04T22:11:32.626Z,58.90
2023-02-04T22:14:03.107Z,59.00
2023-02-04T22:16:32.180Z,59.00
2023-02-04T22:19:01.234Z,59.00
2023-02-04T22:21:30.114Z,59.00
2023-02-04T22:23:59.301Z,59.10
2023-02-04T22:26:28.149Z,59.20
2023-02-04T22:28:57.377Z,59.40
2023-02-04T22:31:27.547Z,59.30
2023-02-04T22:33:59.497Z,59.50
2023-02-04T22:36:28.726Z,59.70
2023-02-04T22:38:57.696Z,59.50
2023-02-04T22:41:26.685Z,59.70
2023-02-04T22:43:55.620Z,59.70
2023-02-04T22:46:24.718Z,59.80
2023-02-04T22:48:55.165Z,59.90
2023-02-04T22:51:24.928Z,60.00
2023-02-04T22:53:54.557Z,60.10
2023-02-04T22:56:23.821Z,60.10
2023-02-04T22:58:53.096Z,60.20
2023-02-04T23:01:22.303Z,60.20
2023-02-04T23:03:51.586Z,59.90
2023-02-04T23:06:22.404Z,59.80
2023-02-04T23:08:51.685Z,59.70
2023-02-04T23:11:23.223Z,59.60
2023-02-04T23:13:52.341Z,59.80
2023-02-04T23:16:21.807Z,59.90
2023-02-04T23:18:50.882Z,60.00
2023-02-04T23:21:22.971Z,60.10
2023-02-04T23:23:52.873Z,60.10
2023-02-04T23:26:22.381Z,60.10
2023-02-04T23:28:51.434Z,60.20
2023-02-04T23:31:20.512Z,60.00
2023-02-04T23:33:49.776Z,60.00
2023-02-04T23:36:18.978Z,60.00
2023-02-04T23:38:49.246Z,60.10
2023-02-04T23:41:19.384Z,60.20
2023-02-04T23:43:48.838Z,60.20
2023-02-04T23:46:18.354Z,60.20
2023-02-04T23:48:47.474Z,60.20
2023-02-04T23:51:16.698Z,60.80
2023-02-04T23:53:45.915Z,60.20
2023-02-04T23:56:16.281Z,60.30
2023-02-04T23:58:46.210Z,60.20
